createdAt,value
2023-03-02T00:02:32.251Z,-3.18
2023-03-02T00:06:35.923Z,-3.22
2023-03-02T00:10:38.497Z,-3.23
2023-03-02T00:14:40.546Z,-3.24
2023-03-02T00:18:42.525Z,-3.32
2023-03-02T00:22:46.023Z,-3.34
2023-03-02T00:26:47.943Z,-3.40
2023-03-02T00:30:49.926Z,-3.38
2023-03-02T00:34:52.134Z,-3.47
2023-03-02T00:38:54.080Z,-3.59
2023-03-02T00:42:56.049Z,-3.57
2023-03-02T00:46:58.230Z,-3.48
2023-03-02T00:51:00.984Z,-3.51
2023-03-02T00:55:03.086Z,-3.54
2023-03-02T00:59:26.474Z,-3.56
2023-03-02T01:03:44.967Z,-3.66
2023-03-02T01:07:48.068Z,-3.72
2023-03-02T01:11:50.483Z,-3.67
2023-03-02T01:16:03.528Z,-3.72
2023-03-02T01:20:08.760Z,-3.71
2023-03-02T01:24:11.246Z,-3.78
2023-03-02T01:28:13.158Z,-3.79
2023-03-02T01:32:15.068Z,-3.79
2023-03-02T01:36:17.216Z,-3.70
2023-03-02T01:40:19.438Z,-3.58
2023-03-02T01:44:48.063Z,-3.21
2023-03-02T01:48:57.324Z,-2.42
2023-03-02T01:53:08.056Z,-2.00
2023-03-02T01:57:10.745Z,-1.77
2023-03-02T02:01:15.844Z,-1.51
2023-03-02T02:05:22.894Z,-1.33
2023-03-02T02:09:26.867Z,-1.18
2023-03-02T02:13:30.263Z,-1.09
2023-03-02T02:17:32.729Z,-1.06
2023-03-02T02:21:34.654Z,-0.93
2023-03-02T02:25:53.038Z,-0.88
2023-03-02T02:29:58.172Z,-0.78
2023-03-02T02:34:24.075Z,-0.78
2023-03-02T02:38:27.829Z,-0.63
2023-03-02T02:42:32.986Z,-0.61
2023-03-02T02:46:35.386Z,-0.52
2023-03-02T02:50:38.135Z,-0.48
2023-03-02T02:54:43.616Z,-0.40
2023-03-02T02:58:51.974Z,-0.44
2023-03-02T03:03:03.150Z,-0.37
2023-03-02T03:07:06.812Z,-0.38
2023-03-02T03:11:10.472Z,-0.39
2023-03-02T03:15:13.859Z,-0.33
2023-03-02T03:19:25.040Z,-0.25
2023-03-02T03:23:28.198Z,-0.25
2023-03-02T03:27:30.911Z,-0.24
2023-03-02T03:31:33.779Z,-0.28
2023-03-02T03:35:38.104Z,-0.19
2023-03-02T03:39:40.619Z,-0.17
2023-03-02T03:43:43.092Z,-0.19
2023-03-02T03:47:45.880Z,-0.15
2023-03-02T03:51:48.514Z,-0.17
2023-03-02T03:55:50.941Z,-0.11
2023-03-02T03:59:54.020Z,-0.15
2023-03-02T04:03:56.234Z,-0.11
2023-03-02T04:08:01.974Z,-0.10
2023-03-02T04:12:05.959Z,-0.11
2023-03-02T04:16:08.801Z,-0.08
2023-03-02T04:20:16.876Z,-0.08
2023-03-02T04:24:22.966Z,-0.14
2023-03-02T04:28:26.775Z,-0.11
2023-03-02T04:32:29.006Z,-0.06
2023-03-02T04:36:33.748Z,-0.02
2023-03-02T04:40:38.298Z,-0.04
2023-03-02T04:44:40.277Z,0.02
2023-03-02T04:48:41.884Z,0.01
2023-03-02T04:52:44.046Z,0.04
2023-03-02T04:56:49.546Z,0.03
2023-03-02T05:00:51.686Z,0.04
2023-03-02T05:04:53.774Z,0.10
2023-03-02T05:08:59.760Z,0.08
2023-03-02T05:13:02.769Z,-0.02
2023-03-02T05:17:05.011Z,0.08
2023-03-02T05:21:07.002Z,0.11
2023-03-02T05:25:09.568Z,0.11
2023-03-02T05:29:11.593Z,0.11
2023-03-02T05:33:14.100Z,-0.01
2023-03-02T05:37:16.004Z,0.14
2023-03-02T05:41:18.262Z,0.13
2023-03-02T05:45:30.081Z,0.05
2023-03-02T05:49:31.758Z,0.06
2023-03-02T05:53:33.746Z,0.11
2023-03-02T05:57:36.009Z,0.18
2023-03-02T06:01:38.801Z,0.10
2023-03-02T06:05:40.852Z,0.10
2023-03-02T06:09:42.928Z,0.22
2023-03-02T06:13:45.842Z,0.25
2023-03-02T06:17:48.218Z,0.29
2023-03-02T06:21:50.369Z,0.32
2023-03-02T06:25:52.328Z,0.36
2023-03-02T06:29:54.635Z,0.40
2023-03-02T06:33:56.551Z,0.42
2023-03-02T06:37:58.499Z,0.47
2023-03-02T06:42:00.680Z,0.46
2023-03-02T06:46:02.942Z,0.45
2023-03-02T06:50:05.920Z,0.52
2023-03-02T06:54:08.344Z,0.59
2023-03-02T06:58:13.151Z,0.61
2023-03-02T07:02:15.218Z,0.64
2023-03-02T07:06:17.303Z,0.67
2023-03-02T07:10:19.581Z,0.68
2023-03-02T07:14:21.611Z,0.73
2023-03-02T07:18:23.879Z,0.75
2023-03-02T07:22:25.787Z,0.78
2023-03-02T07:26:27.845Z,0.82
2023-03-02T07:30:30.118Z,0.84
2023-03-02T07:34:32.195Z,0.86
2023-03-02T07:38:34.582Z,0.91
2023-03-02T07:42:36.607Z,0.83
2023-03-02T07:46:38.871Z,0.88
2023-03-02T07:50:41.026Z,0.97
2023-03-02T07:54:43.125Z,1.06
2023-03-02T07:58:45.095Z,0.79
2023-03-02T08:02:47.047Z,0.76
2023-03-02T08:06:49.184Z,0.88
2023-03-02T08:10:51.193Z,0.88
2023-03-02T08:14:53.285Z,1.02
2023-03-02T08:18:58.636Z,1.19
2023-03-02T08:23:02.082Z,1.30
2023-03-02T08:27:04.492Z,1.39
2023-03-02T08:31:08.042Z,1.51
2023-03-02T08:35:10.234Z,1.32
2023-03-02T08:39:12.268Z,1.31
2023-03-02T08:43:14.213Z,1.21
2023-03-02T08:47:16.236Z,1.35
2023-03-02T08:51:22.565Z,1.34
2023-03-02T08:55:24.708Z,1.52
2023-03-02T08:59:26.885Z,1.77
2023-03-02T09:03:28.836Z,1.72
2023-03-02T09:07:30.783Z,1.81
2023-03-02T09:11:33.726Z,1.90
2023-03-02T09:15:36.048Z,2.18
2023-03-02T09:19:44.336Z,2.14
2023-03-02T09:23:46.605Z,2.11
2023-03-02T09:27:48.765Z,2.09
2023-03-02T09:31:51.195Z,2.14
2023-03-02T09:35:53.261Z,2.41
2023-03-02T09:39:55.304Z,2.28
2023-03-02T09:44:16.037Z,2.12
2023-03-02T09:48:31.706Z,2.03
2023-03-02T09:52:40.388Z,2.14
2023-03-02T09:56:48.341Z,2.29
2023-03-02T10:00:51.770Z,2.37
2023-03-02T10:04:56.144Z,2.39
2023-03-02T10:08:58.567Z,2.46
2023-03-02T10:13:03.258Z,2.26
2023-03-02T10:17:35.518Z,2.29
2023-03-02T10:21:40.375Z,2.28
2023-03-02T10:25:48.817Z,2.28
2023-03-02T10:30:03.371Z,2.18
2023-03-02T10:34:05.613Z,2.22
2023-03-02T10:38:14.468Z,2.24
2023-03-02T10:42:38.047Z,2.31
2023-03-02T10:46:46.324Z,2.15
2023-03-02T10:50:54.114Z,2.30
2023-03-02T10:55:12.623Z,2.39
2023-03-02T10:59:29.535Z,2.36
2023-03-02T11:03:33.227Z,2.22
2023-03-02T11:07:34.864Z,2.20
2023-03-02T11:11:37.351Z,2.11
2023-03-02T11:15:48.253Z,2.04
2023-03-02T11:19:52.601Z,2.26
2023-03-02T11:24:10.493Z,2.42
2023-03-02T11:28:22.298Z,2.27
2023-03-02T11:32:34.534Z,2.43
2023-03-02T11:36:58.744Z,2.57
2023-03-02T11:41:11.260Z,2.29
2023-03-02T11:45:13.539Z,2.46
2023-03-02T11:49:25.067Z,2.63
2023-03-02T11:53:39.733Z,2.65
2023-03-02T11:57:52.112Z,2.85
2023-03-02T12:01:56.783Z,2.85
2023-03-02T12:06:05.250Z,2.79
2023-03-02T12:10:24.380Z,2.63
2023-03-02T12:14:38.006Z,2.69
2023-03-02T12:18:47.134Z,2.85
2023-03-02T12:22:49.138Z,2.95
2023-03-02T12:27:02.005Z,2.95
2023-03-02T12:31:05.831Z,3.15
2023-03-02T12:35:07.663Z,3.22
2023-03-02T12:39:25.602Z,2.96
2023-03-02T12:43:34.783Z,3.15
2023-03-02T12:47:41.449Z,3.12
2023-03-02T12:58:16.901Z,3.23
2023-03-02T13:02:24.358Z,3.18
2023-03-02T13:06:32.024Z,3.08
2023-03-02T13:10:39.139Z,3.08
2023-03-02T13:14:45.512Z,3.00
2023-03-02T13:18:49.930Z,3.15
2023-03-02T13:22:52.430Z,3.02
2023-03-02T13:26:56.696Z,3.12
2023-03-02T13:31:19.871Z,3.05
2023-03-02T13:35:26.670Z,2.93
2023-03-02T13:39:31.507Z,2.86
2023-03-02T13:43:38.313Z,3.07
2023-03-02T13:47:43.740Z,3.24
2023-03-02T13:51:47.625Z,3.20
2023-03-02T13:55:50.600Z,3.13
2023-03-02T13:59:52.706Z,3.14
2023-03-02T14:03:56.454Z,3.17
2023-03-02T14:08:00.606Z,3.01
2023-03-02T14:12:02.677Z,3.16
2023-03-02T14:16:04.981Z,3.15
2023-03-02T14:20:10.160Z,3.00
2023-03-02T14:24:12.359Z,3.13
2023-03-02T14:28:32.838Z,3.05
2023-03-02T14:32:34.932Z,2.99
2023-03-02T14:36:37.061Z,3.00
2023-03-02T14:40:39.083Z,3.02
2023-03-02T14:44:43.041Z,3.01
2023-03-02T14:48:45.009Z,3.01
2023-03-02T14:52:51.648Z,2.96
2023-03-02T14:56:53.676Z,3.00
2023-03-02T15:00:55.736Z,2.94
2023-03-02T15:04:57.853Z,2.93
2023-03-02T15:09:01.119Z,2.88
2023-03-02T15:13:04.166Z,2.82
2023-03-02T15:17:06.654Z,2.80
2023-03-02T15:21:15.177Z,2.63
2023-03-02T15:25:17.509Z,2.66
2023-03-02T15:29:20.629Z,2.67
2023-03-02T15:33:22.829Z,2.64
2023-03-02T15:37:24.781Z,2.54
2023-03-02T15:41:26.884Z,2.33
2023-03-02T15:45:28.902Z,2.24
2023-03-02T15:49:32.866Z,2.17
2023-03-02T15:53:38.292Z,1.97
2023-03-02T15:57:40.517Z,1.79
2023-03-02T16:01:42.517Z,1.58
2023-03-02T16:05:44.989Z,1.43
2023-03-02T16:09:47.283Z,1.10
2023-03-02T16:13:51.768Z,0.76
2023-03-02T16:17:53.665Z,0.48
2023-03-02T16:21:55.742Z,-0.02
2023-03-02T16:26:07.360Z,-0.24
2023-03-02T16:30:09.917Z,-0.32
2023-03-02T16:34:12.198Z,-0.51
2023-03-02T16:38:14.176Z,-0.75
2023-03-02T16:42:16.207Z,-0.86
2023-03-02T16:46:19.255Z,-0.97
2023-03-02T16:50:21.395Z,-1.16
2023-03-02T16:54:23.772Z,-1.26
2023-03-02T16:58:25.913Z,-1.40
2023-03-02T17:02:29.375Z,-1.54
2023-03-02T17:06:31.768Z,-1.70
2023-03-02T17:10:33.883Z,-1.66
2023-03-02T17:14:35.917Z,-1.67
2023-03-02T17:18:38.597Z,-1.76
2023-03-02T17:22:40.668Z,-1.84
2023-03-02T17:26:42.935Z,-1.90
2023-03-02T17:30:45.256Z,-1.99
2023-03-02T17:34:47.640Z,-1.98
2023-03-02T17:38:49.785Z,-2.00
2023-03-02T17:42:54.569Z,-1.98
2023-03-02T17:46:57.673Z,-2.07
2023-03-02T17:50:59.710Z,-2.15
2023-03-02T17:55:01.616Z,-2.19
2023-03-02T17:59:05.207Z,-2.23
2023-03-02T18:03:07.296Z,-2.30
2023-03-02T18:07:09.950Z,-2.29
2023-03-02T18:11:12.029Z,-2.36
2023-03-02T18:15:14.300Z,-2.39
2023-03-02T18:19:16.414Z,-2.41
2023-03-02T18:23:19.221Z,-2.45
2023-03-02T18:27:21.167Z,-2.50
2023-03-02T18:31:23.420Z,-2.55
2023-03-02T18:35:25.581Z,-2.57
2023-03-02T18:39:27.630Z,-2.59
2023-03-02T18:43:32.751Z,-2.62
2023-03-02T18:47:36.598Z,-2.68
2023-03-02T18:51:38.529Z,-2.76
2023-03-02T18:55:41.167Z,-2.74
2023-03-02T18:59:43.249Z,-2.79
2023-03-02T19:03:46.076Z,-2.88
2023-03-02T19:07:49.992Z,-2.90
2023-03-02T19:11:52.053Z,-2.89
2023-03-02T19:15:54.889Z,-2.96
2023-03-02T19:19:57.135Z,-2.95
2023-03-02T19:23:59.018Z,-2.96
2023-03-02T19:28:01.050Z,-2.97
2023-03-02T19:32:03.390Z,-3.03
2023-03-02T19:36:06.334Z,-3.04
2023-03-02T19:40:09.322Z,-3.09
2023-03-02T19:44:12.591Z,-3.05
2023-03-02T19:48:14.577Z,-3.11
2023-03-02T19:52:16.754Z,-3.16
2023-03-02T19:56:20.009Z,-3.19
2023-03-02T20:00:23.491Z,-3.20
2023-03-02T20:04:25.750Z,-3.25
2023-03-02T20:08:27.952Z,-3.30
2023-03-02T20:12:29.950Z,-3.36
2023-03-02T20:16:35.711Z,-3.39
2023-03-02T20:20:37.871Z,-3.45
2023-03-02T20:24:40.331Z,-3.48
2023-03-02T20:28:42.332Z,-3.51
2023-03-02T20:32:44.577Z,-3.61
2023-03-02T20:36:47.046Z,-3.59
2023-03-02T20:40:49.932Z,-3.61
2023-03-02T20:44:52.450Z,-3.58
2023-03-02T20:48:55.207Z,-3.57
2023-03-02T20:52:57.664Z,-3.61
2023-03-02T20:57:00.966Z,-3.61
2023-03-02T21:01:03.173Z,-3.68
2023-03-02T21:05:06.027Z,-3.63
2023-03-02T21:09:09.213Z,-3.64
2023-03-02T21:13:11.848Z,-3.65
2023-03-02T21:17:14.193Z,-3.73
2023-03-02T21:21:16.609Z,-3.75
2023-03-02T21:25:19.200Z,-3.81
2023-03-02T21:29:24.177Z,-3.95
2023-03-02T21:33:26.521Z,-3.97
2023-03-02T21:37:28.738Z,-3.92
2023-03-02T21:41:30.881Z,-3.93
2023-03-02T21:45:33.334Z,-3.93
2023-03-02T21:49:35.432Z,-3.96
2023-03-02T21:53:37.613Z,-3.99
2023-03-02T21:57:40.625Z,-3.99
2023-03-02T22:01:42.852Z,-3.98
2023-03-02T22:05:44.955Z,-3.95
2023-03-02T22:09:46.993Z,-3.91
2023-03-02T22:13:51.197Z,-3.95
2023-03-02T22:17:55.250Z,-3.88
2023-03-02T22:22:03.105Z,-3.96
2023-03-02T22:26:12.982Z,-4.06
2023-03-02T22:30:23.626Z,-3.97
2023-03-02T22:34:30.615Z,-3.96
2023-03-02T22:38:33.500Z,-4.06
2023-03-02T22:42:35.781Z,-4.16
2023-03-02T22:46:37.897Z,-4.14
2023-03-02T22:50:40.140Z,-4.16
2023-03-02T22:54:42.129Z,-4.13
2023-03-02T22:58:47.559Z,-4.13
2023-03-02T23:02:52.202Z,-4.17
2023-03-02T23:07:02.747Z,-4.20
2023-03-02T23:11:14.885Z,-4.22
2023-03-02T23:15:20.456Z,-4.32
2023-03-02T23:19:22.597Z,-4.40
2023-03-02T23:23:26.607Z,-4.37
2023-03-02T23:27:28.596Z,-4.30
2023-03-02T23:31:30.628Z,-4.38
2023-03-02T23:35:32.720Z,-4.43
2023-03-02T23:39:35.021Z,-4.45
2023-03-02T23:43:37.199Z,-4.42
2023-03-02T23:47:39.293Z,-4.38
2023-03-02T23:51:41.474Z,-4.31
2023-03-02T23:55:54.538Z,-4.35
2023-03-02T23:59:56.527Z,-4.48
